Aviation Digital Data Service (ADDS)

Output produced by TAFs form (0218 UTC 23 October 2014)
found at http://www.aviationweather.gov/adds/tafs/
 
KMRB 222336Z 2300/2324 33014G22KT P6SM BKN060 
     FM230300 33014KT P6SM SCT050 
     FM230400 33014KT P6SM BKN070